Time;durP1;ratioP1;P1;durP2;ratioP2;P2;SDS_P1;SDS_P2;PMS_P1;PMS_P2;Temp;Humidity;BMP_temperature;BMP_pressure;BME280_temperature;BME280_humidity;BME280_pressure;Samples;Min_cycle;Max_cycle;Signal;HPM_P1;HPM_P2
2021/01/22 00:01:59;;;;;;;;;;;10.00;96.70;;;;;;5050097;28;19912;-77
2021/01/22 00:04:27;;;;;;;;;;;9.90;96.80;;;;;;5069149;28;20341;-77
2021/01/22 00:06:53;;;;;;;;;;;9.80;97.00;;;;;;5050965;28;19917;-76
2021/01/22 00:09:21;;;;;;;;;;;9.70;97.70;;;;;;5051149;28;19919;-77
2021/01/22 00:11:46;;;;;;;;;;;9.70;97.80;;;;;;5050803;28;19917;-78
2021/01/22 00:14:12;;;;;;;;;;;9.60;98.10;;;;;;5050889;28;19923;-78
2021/01/22 00:16:38;;;;;;;;;;;9.50;98.20;;;;;;5050936;28;20432;-79
2021/01/22 00:19:05;;;;;;;;;;;9.50;99.40;;;;;;5050787;28;19971;-78
2021/01/22 00:21:34;;;;;;;;;;;9.40;99.60;;;;;;5050822;28;19912;-77
2021/01/22 00:23:59;;;;;;;;;;;9.40;98.80;;;;;;5050997;28;20354;-78
2021/01/22 00:26:27;;;;;;;;;;;9.40;99.70;;;;;;5050584;28;20023;-77
2021/01/22 00:28:53;;;;;;;;;;;9.50;98.60;;;;;;5050829;28;19912;-77
2021/01/22 00:31:21;;;;;;;;;;;9.50;99.10;;;;;;5050256;28;19920;-77
2021/01/22 00:33:46;;;;;;;;;;;9.40;99.90;;;;;;5051173;28;19923;-78
2021/01/22 00:36:12;;;;;;;;;;;9.30;99.90;;;;;;5050378;28;20410;-78
2021/01/22 00:38:38;;;;;;;;;;;9.40;99.70;;;;;;5050737;28;19909;-77
2021/01/22 00:41:08;;;;;;;;;;;9.40;99.80;;;;;;5050596;28;19912;-77
2021/01/22 00:43:33;;;;;;;;;;;9.30;99.90;;;;;;5050692;28;19919;-77
2021/01/22 00:45:59;;;;;;;;;;;9.20;99.90;;;;;;5050302;28;19912;-77
2021/01/22 00:48:25;;;;;;;;;;;9.10;99.90;;;;;;5050987;28;20459;-77
2021/01/22 00:50:53;;;;;;;;;;;9.10;99.90;;;;;;5051028;28;20279;-78
2021/01/22 00:53:18;;;;;;;;;;;9.00;99.90;;;;;;5051158;28;19909;-77
2021/01/22 00:55:44;;;;;;;;;;;9.00;99.90;;;;;;5050323;28;19935;-77
2021/01/22 00:58:13;;;;;;;;;;;8.90;99.90;;;;;;5050583;28;19962;-77
2021/01/22 01:00:41;;;;;;;;;;;8.90;99.90;;;;;;5050077;28;19962;-76
2021/01/22 01:03:07;;;;;;;;;;;8.80;99.90;;;;;;5050500;28;19913;-77
2021/01/22 01:05:32;;;;;;;;;;;8.70;99.90;;;;;;5050086;28;20275;-78
2021/01/22 01:07:58;;;;;;;;;;;8.70;99.90;;;;;;5050751;28;20017;-76
2021/01/22 01:10:26;;;;;;;;;;;8.90;99.90;;;;;;5050613;28;20406;-77
2021/01/22 01:12:51;;;;;;;;;;;9.00;99.90;;;;;;5050297;28;19912;-78
2021/01/22 01:15:17;;;;;;;;;;;8.90;99.90;;;;;;5049981;28;19966;-77
2021/01/22 01:17:42;;;;;;;;;;;8.90;99.90;;;;;;5049775;28;20353;-78
2021/01/22 01:20:09;;;;;;;;;;;8.80;99.90;;;;;;5050131;28;20371;-77
2021/01/22 01:22:36;;;;;;;;;;;8.80;99.90;;;;;;5050590;28;19995;-78
2021/01/22 01:25:03;;;;;;;;;;;8.80;99.90;;;;;;5049891;28;19919;-78
2021/01/22 01:27:28;;;;;;;;;;;8.80;99.90;;;;;;5052179;28;19920;-78
2021/01/22 01:29:56;;;;;;;;;;;8.80;99.90;;;;;;5053666;28;19965;-77
2021/01/22 01:32:22;;;;;;;;;;;8.80;99.90;;;;;;5054522;28;19913;-80
2021/01/22 01:34:47;;;;;;;;;;;8.80;99.90;;;;;;5053998;28;20033;-77
2021/01/22 01:37:15;;;;;;;;;;;8.70;99.90;;;;;;5054067;28;20280;-78
2021/01/22 01:39:43;;;;;;;;;;;8.70;99.90;;;;;;5053856;28;19919;-78
2021/01/22 01:42:09;;;;;;;;;;;8.70;99.90;;;;;;5054486;28;19919;-78
2021/01/22 01:44:35;;;;;;;;;;;8.70;99.90;;;;;;5053822;28;19919;-77
2021/01/22 01:47:05;;;;;;;;;;;8.80;99.90;;;;;;5054514;28;19921;-78
2021/01/22 01:49:31;;;;;;;;;;;8.70;99.90;;;;;;5053553;28;19912;-79
2021/01/22 01:51:57;;;;;;;;;;;8.60;99.90;;;;;;5053650;28;19916;-79
2021/01/22 01:54:22;;;;;;;;;;;8.60;99.90;;;;;;5053423;28;19967;-79
2021/01/22 01:56:48;;;;;;;;;;;8.60;99.90;;;;;;5053446;28;19959;-79
2021/01/22 01:59:14;;;;;;;;;;;8.60;99.90;;;;;;5054092;28;20003;-79
2021/01/22 02:01:43;;;;;;;;;;;8.50;99.90;;;;;;5053818;28;19962;-78
2021/01/22 02:04:11;;;;;;;;;;;8.40;99.90;;;;;;5053590;28;20384;-77
2021/01/22 02:06:37;;;;;;;;;;;8.50;99.90;;;;;;5053418;28;19921;-77
2021/01/22 02:09:03;;;;;;;;;;;8.60;99.90;;;;;;5053256;28;19913;-77
2021/01/22 02:11:29;;;;;;;;;;;8.70;99.90;;;;;;5053693;28;19917;-78
2021/01/22 02:13:55;;;;;;;;;;;8.60;99.90;;;;;;5053447;28;19935;-78
2021/01/22 02:16:21;;;;;;;;;;;8.50;99.90;;;;;;5053062;28;19962;-77
2021/01/22 02:18:47;;;;;;;;;;;8.60;99.90;;;;;;5071468;28;19928;-78
2021/01/22 02:21:26;;;;;;;;;;;8.50;99.90;;;;;;5053068;28;20264;-78
2021/01/22 02:23:53;;;;;;;;;;;8.60;99.90;;;;;;5053512;28;19952;-78
2021/01/22 02:26:27;;;;;;;;;;;8.60;99.90;;;;;;5053150;28;19920;-78
2021/01/22 02:28:56;;;;;;;;;;;8.50;99.90;;;;;;5071091;28;20313;-77
2021/01/22 02:31:23;;;;;;;;;;;8.60;99.90;;;;;;5052952;28;19912;-77
2021/01/22 02:33:50;;;;;;;;;;;8.60;99.90;;;;;;5061367;28;19913;-77
2021/01/22 02:36:18;;;;;;;;;;;8.50;99.90;;;;;;5048588;28;19916;-77
2021/01/22 02:38:47;;;;;;;;;;;8.60;99.90;;;;;;5052397;28;19920;-78
2021/01/22 02:43:57;;;;;;;;;;;8.70;99.80;;;;;;5086197;22;20031;-78
2021/01/22 02:46:23;;;;;;;;;;;8.80;99.30;;;;;;5032513;28;19921;-78
2021/01/22 02:48:49;;;;;;;;;;;8.70;99.70;;;;;;5033141;28;20391;-77
2021/01/22 02:51:15;;;;;;;;;;;8.70;99.90;;;;;;5033069;28;19909;-77
2021/01/22 02:53:40;;;;;;;;;;;8.70;99.80;;;;;;5033101;28;19920;-76
2021/01/22 02:56:11;;;;;;;;;;;8.70;99.90;;;;;;5032663;28;19912;-76
2021/01/22 02:58:40;;;;;;;;;;;8.60;99.80;;;;;;5032910;28;20016;-77
2021/01/22 03:01:09;;;;;;;;;;;8.60;99.90;;;;;;5032470;28;19963;-77
2021/01/22 03:03:48;;;;;;;;;;;8.60;99.90;;;;;;5051144;28;19920;-76
2021/01/22 03:06:16;;;;;;;;;;;8.60;99.90;;;;;;5032242;28;19913;-77
2021/01/22 03:08:42;;;;;;;;;;;8.60;99.80;;;;;;5032470;28;20011;-78
2021/01/22 03:11:11;;;;;;;;;;;8.60;99.90;;;;;;5032203;28;20000;-76
2021/01/22 03:13:38;;;;;;;;;;;8.50;99.90;;;;;;5032716;28;20405;-77
2021/01/22 03:16:04;;;;;;;;;;;8.50;99.90;;;;;;5032704;28;20465;-77
2021/01/22 03:18:29;;;;;;;;;;;8.50;99.40;;;;;;5032383;28;20003;-78
2021/01/22 03:20:55;;;;;;;;;;;8.50;99.70;;;;;;5031720;28;19913;-76
2021/01/22 03:23:20;;;;;;;;;;;8.40;99.70;;;;;;5032884;28;19951;-77
2021/01/22 03:25:48;;;;;;;;;;;8.40;99.30;;;;;;5031979;28;19920;-77
2021/01/22 03:28:17;;;;;;;;;;;8.40;99.00;;;;;;5031856;28;19971;-78
2021/01/22 03:30:42;;;;;;;;;;;8.40;99.70;;;;;;5049767;28;19995;-79
2021/01/22 03:33:10;;;;;;;;;;;8.40;99.40;;;;;;5031883;28;20008;-77
2021/01/22 03:35:36;;;;;;;;;;;8.40;99.30;;;;;;5032087;28;19913;-78
2021/01/22 03:38:04;;;;;;;;;;;8.40;99.20;;;;;;5031905;28;19982;-77
2021/01/22 03:40:29;;;;;;;;;;;8.40;98.80;;;;;;5031548;28;19966;-77
2021/01/22 03:42:55;;;;;;;;;;;8.30;99.00;;;;;;5031791;28;19929;-78
2021/01/22 03:45:23;;;;;;;;;;;8.40;99.00;;;;;;5031734;28;19992;-77
2021/01/22 03:47:49;;;;;;;;;;;8.30;99.20;;;;;;5032393;28;20011;-77
2021/01/22 03:50:16;;;;;;;;;;;8.20;99.80;;;;;;5031103;28;20031;-78
2021/01/22 03:52:42;;;;;;;;;;;8.20;99.80;;;;;;5031676;28;20008;-78
2021/01/22 03:55:08;;;;;;;;;;;8.20;99.60;;;;;;5031075;28;20008;-78
2021/01/22 03:57:33;;;;;;;;;;;8.20;99.40;;;;;;5032255;28;19971;-77
2021/01/22 03:59:59;;;;;;;;;;;8.20;99.10;;;;;;5031024;28;19913;-76
2021/01/22 04:02:25;;;;;;;;;;;8.30;99.00;;;;;;5031728;28;19913;-77
2021/01/22 04:04:51;;;;;;;;;;;8.20;99.10;;;;;;5031277;28;19912;-77
2021/01/22 04:07:16;;;;;;;;;;;8.20;98.90;;;;;;5049531;28;19946;-78
2021/01/22 04:09:42;;;;;;;;;;;8.20;98.80;;;;;;5031265;28;20019;-77
2021/01/22 04:12:07;;;;;;;;;;;8.40;98.30;;;;;;5031581;28;19948;-77
2021/01/22 04:14:33;;;;;;;;;;;8.30;99.00;;;;;;5031617;28;19928;-77
2021/01/22 04:16:59;;;;;;;;;;;8.20;99.20;;;;;;5049616;28;19913;-77
2021/01/22 04:19:27;;;;;;;;;;;8.20;99.50;;;;;;5031115;28;20268;-81
2021/01/22 04:21:55;;;;;;;;;;;8.20;99.10;;;;;;5049655;28;19913;-77
2021/01/22 04:24:21;;;;;;;;;;;8.20;99.20;;;;;;5030990;28;19912;-77
2021/01/22 04:26:51;;;;;;;;;;;8.20;99.20;;;;;;5031354;28;19921;-77
2021/01/22 04:29:19;;;;;;;;;;;8.20;99.30;;;;;;5030749;28;20216;-77
2021/01/22 04:31:44;;;;;;;;;;;8.20;99.20;;;;;;5030899;28;19913;-77
2021/01/22 04:34:10;;;;;;;;;;;8.10;99.00;;;;;;5031200;28;19939;-77
2021/01/22 04:36:35;;;;;;;;;;;8.20;99.40;;;;;;5030963;28;19935;-78
2021/01/22 04:39:04;;;;;;;;;;;8.20;98.40;;;;;;5031242;28;20256;-77
2021/01/22 04:41:32;;;;;;;;;;;8.30;98.20;;;;;;5030721;28;19935;-78
2021/01/22 04:44:04;;;;;;;;;;;8.30;97.70;;;;;;5030953;28;19951;-79
2021/01/22 04:46:34;;;;;;;;;;;8.30;97.50;;;;;;5048288;28;19925;-78
2021/01/22 04:49:00;;;;;;;;;;;8.20;97.70;;;;;;5031305;28;19916;-78
2021/01/22 04:51:26;;;;;;;;;;;8.10;97.70;;;;;;5030672;28;19963;-78
2021/01/22 04:53:53;;;;;;;;;;;8.00;98.30;;;;;;5030855;28;19948;-78
2021/01/22 04:56:19;;;;;;;;;;;8.00;98.40;;;;;;5030465;28;19916;-78
2021/01/22 04:58:48;;;;;;;;;;;7.90;99.00;;;;;;5027547;28;20413;-78
2021/01/22 05:01:16;;;;;;;;;;;7.90;98.40;;;;;;5028946;28;19940;-78
2021/01/22 05:03:42;;;;;;;;;;;7.90;99.00;;;;;;5030149;28;20292;-78
2021/01/22 05:06:10;;;;;;;;;;;7.90;98.60;;;;;;5029311;28;19919;-78
2021/01/22 05:08:35;;;;;;;;;;;8.00;97.80;;;;;;5027219;28;19986;-77
2021/01/22 05:11:01;;;;;;;;;;;8.00;97.30;;;;;;5029855;28;20371;-77
2021/01/22 05:13:26;;;;;;;;;;;8.10;97.20;;;;;;5028320;28;19917;-78
2021/01/22 05:16:08;;;;;;;;;;;8.00;97.30;;;;;;5028276;28;19920;-77
2021/01/22 05:18:36;;;;;;;;;;;8.00;97.50;;;;;;5045059;28;19989;-78
2021/01/22 05:21:08;;;;;;;;;;;8.00;97.20;;;;;;5018962;28;19917;-78
2021/01/22 05:23:34;;;;;;;;;;;8.10;98.80;;;;;;5030761;28;20351;-78
2021/01/22 05:26:05;;;;;;;;;;;8.00;97.40;;;;;;5030142;28;20000;-78
2021/01/22 05:28:34;;;;;;;;;;;8.00;98.20;;;;;;5030725;28;19967;-78
2021/01/22 05:31:02;;;;;;;;;;;8.00;97.60;;;;;;5047889;28;19999;-78
2021/01/22 05:33:28;;;;;;;;;;;8.00;99.30;;;;;;5030603;28;19982;-79
2021/01/22 05:35:53;;;;;;;;;;;8.00;97.70;;;;;;5030290;28;20352;-79
2021/01/22 05:38:37;;;;;;;;;;;8.10;97.40;;;;;;5030411;28;19917;-77
2021/01/22 05:41:05;;;;;;;;;;;8.10;97.60;;;;;;5030180;28;19913;-78
2021/01/22 05:43:34;;;;;;;;;;;8.10;97.50;;;;;;5030075;28;20012;-78
2021/01/22 05:46:00;;;;;;;;;;;8.00;98.10;;;;;;5030104;28;19975;-78
2021/01/22 05:48:28;;;;;;;;;;;8.00;98.10;;;;;;5029907;28;20385;-77
2021/01/22 05:50:55;;;;;;;;;;;8.10;98.40;;;;;;5048703;28;19920;-79
2021/01/22 05:53:23;;;;;;;;;;;8.20;97.90;;;;;;5030511;28;19963;-79
2021/01/22 05:56:08;;;;;;;;;;;8.10;98.20;;;;;;5029861;28;20378;-78
2021/01/22 05:58:34;;;;;;;;;;;8.00;98.70;;;;;;5030434;28;19913;-77
2021/01/22 06:01:06;;;;;;;;;;;8.00;99.40;;;;;;5148070;22;19933;-78
2021/01/22 06:03:32;;;;;;;;;;;8.00;99.30;;;;;;5044364;28;19924;-77
2021/01/22 06:05:57;;;;;;;;;;;7.90;99.90;;;;;;5045797;28;19916;-79
2021/01/22 06:08:23;;;;;;;;;;;8.00;99.90;;;;;;5046186;28;19928;-77
2021/01/22 06:10:53;;;;;;;;;;;8.00;99.90;;;;;;5039609;28;19920;-78
2021/01/22 06:13:23;;;;;;;;;;;8.00;99.90;;;;;;5044059;28;20385;-78
2021/01/22 06:15:49;;;;;;;;;;;8.00;99.70;;;;;;5051095;28;19920;-79
2021/01/22 06:18:16;;;;;;;;;;;8.20;99.00;;;;;;5050446;28;20398;-77
2021/01/22 06:20:42;;;;;;;;;;;8.30;99.40;;;;;;5049453;28;19909;-78
2021/01/22 06:23:12;;;;;;;;;;;8.20;98.60;;;;;;5050047;28;20338;-77
2021/01/22 06:25:42;;;;;;;;;;;8.20;99.20;;;;;;5049757;28;20024;-79
2021/01/22 06:28:08;;;;;;;;;;;8.20;98.90;;;;;;5049926;28;19916;-77
2021/01/22 06:30:37;;;;;;;;;;;8.20;98.80;;;;;;5049778;28;20505;-78
2021/01/22 06:33:04;;;;;;;;;;;8.20;99.90;;;;;;5049810;28;19909;-78
2021/01/22 06:35:33;;;;;;;;;;;8.20;99.20;;;;;;5049645;28;19935;-78
2021/01/22 06:38:00;;;;;;;;;;;8.20;99.20;;;;;;5050152;28;19917;-79
2021/01/22 06:40:26;;;;;;;;;;;8.20;99.20;;;;;;5049945;28;19919;-80
2021/01/22 06:42:53;;;;;;;;;;;8.20;98.50;;;;;;5049988;28;20375;-78
2021/01/22 06:45:23;;;;;;;;;;;8.30;99.30;;;;;;5049534;28;19912;-77
2021/01/22 06:48:15;;;;;;;;;;;8.30;98.80;;;;;;5049655;28;19913;-78
2021/01/22 06:50:43;;;;;;;;;;;8.20;98.90;;;;;;5044835;28;19920;-77
2021/01/22 06:53:13;;;;;;;;;;;8.20;99.10;;;;;;5049670;28;19909;-79
2021/01/22 06:55:53;;;;;;;;;;;8.20;98.80;;;;;;5050772;28;20004;-79
2021/01/22 06:58:28;;;;;;;;;;;8.20;99.00;;;;;;5049343;28;19920;-78
2021/01/22 07:00:54;;;;;;;;;;;8.30;98.50;;;;;;5049141;28;19925;-79
2021/01/22 07:03:52;;;;;;;;;;;8.20;98.40;;;;;;5048835;28;20288;-78
2021/01/22 07:06:30;;;;;;;;;;;8.20;98.60;;;;;;4985396;28;19917;-77
2021/01/22 07:08:57;;;;;;;;;;;8.20;98.40;;;;;;5048218;28;19917;-79
2021/01/22 07:11:23;;;;;;;;;;;8.20;98.70;;;;;;5048776;28;19967;-77
2021/01/22 07:13:49;;;;;;;;;;;8.10;98.70;;;;;;5049086;28;19913;-77
2021/01/22 07:16:18;;;;;;;;;;;8.10;99.10;;;;;;5048810;28;19959;-78
2021/01/22 07:18:43;;;;;;;;;;;8.10;99.30;;;;;;5050419;28;19944;-75
2021/01/22 07:21:19;;;;;;;;;;;8.00;99.10;;;;;;5049189;28;19913;-78
2021/01/22 07:23:45;;;;;;;;;;;8.10;98.70;;;;;;5048636;28;19919;-77
2021/01/22 07:26:11;;;;;;;;;;;8.10;98.40;;;;;;5049325;28;20368;-77
2021/01/22 07:28:48;;;;;;;;;;;8.30;98.20;;;;;;5048672;28;19959;-78
2021/01/22 07:31:34;;;;;;;;;;;8.20;97.80;;;;;;5034703;28;20320;-77
2021/01/22 07:33:59;;;;;;;;;;;8.20;97.80;;;;;;5031443;28;20342;-78
2021/01/22 07:36:25;;;;;;;;;;;8.30;98.00;;;;;;5040050;28;19952;-78
2021/01/22 07:38:51;;;;;;;;;;;8.20;97.40;;;;;;5044641;28;19933;-78
2021/01/22 07:41:20;;;;;;;;;;;8.30;97.80;;;;;;5045128;28;19951;-78
2021/01/22 07:43:57;;;;;;;;;;;8.30;97.80;;;;;;5048687;28;19912;-77
2021/01/22 07:46:23;;;;;;;;;;;8.30;97.50;;;;;;5045874;28;19913;-78
2021/01/22 07:48:50;;;;;;;;;;;8.40;97.00;;;;;;5048268;28;20282;-77
2021/01/22 07:51:32;;;;;;;;;;;8.40;96.80;;;;;;5047725;28;19916;-77
2021/01/22 07:53:58;;;;;;;;;;;8.40;96.50;;;;;;5047893;28;19924;-77
2021/01/22 07:56:33;;;;;;;;;;;8.40;97.10;;;;;;5047527;28;20178;-77
2021/01/22 07:59:01;;;;;;;;;;;8.40;97.30;;;;;;5045915;28;19912;-78
2021/01/22 08:01:29;;;;;;;;;;;8.30;97.70;;;;;;5047248;28;19928;-78
2021/01/22 08:03:55;;;;;;;;;;;8.40;97.00;;;;;;5048042;28;19919;-77
2021/01/22 08:06:23;;;;;;;;;;;8.40;97.60;;;;;;5061183;28;19909;-77
2021/01/22 08:09:03;;;;;;;;;;;8.40;96.90;;;;;;5047584;28;19971;-77
2021/01/22 08:11:28;;;;;;;;;;;8.50;96.40;;;;;;5044460;28;19913;-78
2021/01/22 08:13:56;;;;;;;;;;;8.50;96.70;;;;;;5047609;28;20012;-77
2021/01/22 08:16:25;;;;;;;;;;;8.50;96.10;;;;;;5047226;28;19913;-78
2021/01/22 08:18:51;;;;;;;;;;;8.50;95.90;;;;;;5047380;28;19912;-78
2021/01/22 08:21:17;;;;;;;;;;;8.60;96.30;;;;;;5045549;28;19963;-78
2021/01/22 08:23:43;;;;;;;;;;;8.60;96.30;;;;;;5047168;28;19917;-77
2021/01/22 08:26:12;;;;;;;;;;;8.70;95.60;;;;;;5046970;28;20344;-77
2021/01/22 08:28:39;;;;;;;;;;;8.70;95.70;;;;;;5040927;28;19920;-78
2021/01/22 08:31:11;;;;;;;;;;;8.80;95.30;;;;;;5043020;28;19921;-79
2021/01/22 08:33:37;;;;;;;;;;;8.80;95.20;;;;;;5047541;28;20003;-77
2021/01/22 08:36:04;;;;;;;;;;;8.90;94.90;;;;;;5042219;28;20007;-78
2021/01/22 08:38:30;;;;;;;;;;;8.90;95.10;;;;;;5041750;28;19919;-77
2021/01/22 08:40:55;;;;;;;;;;;8.90;95.00;;;;;;5045581;28;19913;-78
2021/01/22 08:43:21;;;;;;;;;;;8.90;95.40;;;;;;5036997;28;19957;-77
2021/01/22 08:46:06;;;;;;;;;;;9.00;95.20;;;;;;5038811;28;19920;-78
2021/01/22 08:48:36;;;;;;;;;;;9.00;95.10;;;;;;5040199;28;20012;-79
2021/01/22 08:51:02;;;;;;;;;;;9.00;95.80;;;;;;5034774;28;19921;-77
2021/01/22 08:53:28;;;;;;;;;;;9.10;94.80;;;;;;5044820;28;19913;-77
2021/01/22 08:56:14;;;;;;;;;;;9.20;94.20;;;;;;5046999;28;19999;-78
2021/01/22 08:58:58;;;;;;;;;;;9.30;94.40;;;;;;5063345;28;19913;-77
2021/01/22 09:01:47;;;;;;;;;;;9.40;93.90;;;;;;5045150;28;20216;-77
2021/01/22 09:04:22;;;;;;;;;;;9.40;93.70;;;;;;5045712;28;19919;-77
2021/01/22 09:06:50;;;;;;;;;;;9.50;93.50;;;;;;5044742;28;19920;-77
2021/01/22 09:09:16;;;;;;;;;;;9.50;93.60;;;;;;5047299;28;19921;-78
2021/01/22 09:11:42;;;;;;;;;;;9.50;93.50;;;;;;5045607;28;20287;-77
2021/01/22 09:14:08;;;;;;;;;;;9.60;93.30;;;;;;5046616;28;19913;-78
2021/01/22 09:16:53;;;;;;;;;;;9.50;93.40;;;;;;5048416;28;19912;-78
2021/01/22 09:19:21;;;;;;;;;;;9.60;93.00;;;;;;5062543;28;19912;-78
2021/01/22 09:21:53;;;;;;;;;;;9.60;92.60;;;;;;5042399;28;20340;-76
2021/01/22 09:24:21;;;;;;;;;;;9.70;92.30;;;;;;5055274;28;20332;-77
2021/01/22 09:26:47;;;;;;;;;;;9.70;92.20;;;;;;5046888;28;20275;-78
2021/01/22 09:29:12;;;;;;;;;;;9.60;92.90;;;;;;5033284;28;19924;-77
2021/01/22 09:31:40;;;;;;;;;;;9.60;93.20;;;;;;5046656;28;19916;-77
2021/01/22 09:34:06;;;;;;;;;;;9.60;92.50;;;;;;5047109;28;19913;-78
2021/01/22 09:36:32;;;;;;;;;;;9.70;92.10;;;;;;5047011;28;20029;-78
2021/01/22 09:38:57;;;;;;;;;;;9.70;92.80;;;;;;5047239;28;20364;-79
2021/01/22 09:41:23;;;;;;;;;;;9.80;92.50;;;;;;5046520;28;20419;-78
2021/01/22 09:43:52;;;;;;;;;;;9.80;92.50;;;;;;5047192;28;19913;-78
2021/01/22 09:46:20;;;;;;;;;;;9.90;92.30;;;;;;5046824;28;20465;-78
2021/01/22 09:48:46;;;;;;;;;;;10.00;91.70;;;;;;5049900;28;20432;-78
2021/01/22 09:51:14;;;;;;;;;;;10.00;92.10;;;;;;5050579;28;19916;-78
2021/01/22 09:53:40;;;;;;;;;;;10.00;92.20;;;;;;5050526;28;20063;-77
2021/01/22 09:56:05;;;;;;;;;;;10.10;92.50;;;;;;5050270;28;19987;-79
2021/01/22 09:58:31;;;;;;;;;;;10.10;92.50;;;;;;5050663;28;19924;-76
2021/01/22 10:00:56;;;;;;;;;;;10.10;92.10;;;;;;5049967;28;19978;-77
2021/01/22 10:03:22;;;;;;;;;;;10.20;92.50;;;;;;5050531;28;19912;-77
2021/01/22 10:05:47;;;;;;;;;;;10.20;92.20;;;;;;5050090;28;19917;-77
2021/01/22 10:08:15;;;;;;;;;;;10.20;92.10;;;;;;5049947;28;19920;-77
2021/01/22 10:10:40;;;;;;;;;;;10.20;92.20;;;;;;5051365;28;19971;-80
2021/01/22 10:13:06;;;;;;;;;;;10.20;92.40;;;;;;5050378;28;20004;-77
2021/01/22 10:15:34;;;;;;;;;;;10.30;92.00;;;;;;5050167;28;20528;-78
2021/01/22 10:18:00;;;;;;;;;;;10.30;92.20;;;;;;5049706;28;20062;-79
2021/01/22 10:20:28;;;;;;;;;;;10.30;91.80;;;;;;5049748;28;19913;-78
2021/01/22 10:22:53;;;;;;;;;;;10.50;91.20;;;;;;5048840;28;19912;-79
2021/01/22 10:25:19;;;;;;;;;;;10.40;91.70;;;;;;5049040;28;19919;-78
2021/01/22 10:27:47;;;;;;;;;;;10.50;91.70;;;;;;5049784;28;19913;-79
2021/01/22 10:30:16;;;;;;;;;;;10.60;90.70;;;;;;5050260;28;19967;-78
2021/01/22 10:32:43;;;;;;;;;;;10.60;90.90;;;;;;5050015;28;20021;-77
2021/01/22 10:35:09;;;;;;;;;;;10.60;90.80;;;;;;5049760;28;20021;-78
2021/01/22 10:37:35;;;;;;;;;;;10.70;90.70;;;;;;5051912;28;20074;-78
2021/01/22 10:40:04;;;;;;;;;;;10.80;90.30;;;;;;5049807;28;19912;-78
2021/01/22 10:42:31;;;;;;;;;;;10.80;90.90;;;;;;5049715;28;19920;-79
2021/01/22 10:44:58;;;;;;;;;;;10.80;90.50;;;;;;5049673;28;19920;-78
2021/01/22 12:09:31;;;;;;;;;;;12.10;82.80;;;;;;5064296;28;19981;-77
2021/01/22 12:11:59;;;;;;;;;;;12.20;82.20;;;;;;5050832;28;20310;-77
2021/01/22 12:14:24;;;;;;;;;;;12.30;82.50;;;;;;5050804;28;19923;-80
2021/01/22 12:16:50;;;;;;;;;;;12.20;83.00;;;;;;5056072;28;20294;-77
2021/01/22 12:19:18;;;;;;;;;;;12.20;83.50;;;;;;5051013;28;19920;-78
2021/01/22 12:21:46;;;;;;;;;;;12.20;83.60;;;;;;5052879;28;20283;-78
2021/01/22 12:24:12;;;;;;;;;;;12.30;82.40;;;;;;5070823;28;19912;-77
2021/01/22 12:26:38;;;;;;;;;;;12.30;82.60;;;;;;5044023;28;19909;-78
2021/01/22 12:29:03;;;;;;;;;;;12.30;82.40;;;;;;5045986;28;20283;-77
2021/01/22 12:31:29;;;;;;;;;;;12.30;82.10;;;;;;5050386;28;19912;-76
2021/01/22 12:33:55;;;;;;;;;;;12.30;83.80;;;;;;5050659;28;19912;-78
2021/01/22 12:36:20;;;;;;;;;;;12.30;82.30;;;;;;5050456;28;19912;-79
2021/01/22 12:38:46;;;;;;;;;;;12.30;83.50;;;;;;5069631;28;19951;-78
2021/01/22 12:41:11;;;;;;;;;;;12.30;82.50;;;;;;5050726;28;19999;-78
2021/01/22 12:43:37;;;;;;;;;;;12.30;82.90;;;;;;5051055;28;19909;-78
2021/01/22 12:46:05;;;;;;;;;;;12.40;80.30;;;;;;5050593;28;19908;-79
2021/01/22 12:48:31;;;;;;;;;;;12.40;81.60;;;;;;5050788;28;19916;-78
2021/01/22 12:50:57;;;;;;;;;;;12.40;80.90;;;;;;5069034;28;19912;-79
2021/01/22 12:53:22;;;;;;;;;;;12.40;81.00;;;;;;5050833;28;19920;-80
2021/01/22 12:55:48;;;;;;;;;;;12.40;80.40;;;;;;5050541;28;19912;-78
2021/01/22 12:58:16;;;;;;;;;;;12.40;80.90;;;;;;5050632;28;19924;-78
2021/01/22 13:00:42;;;;;;;;;;;12.40;80.80;;;;;;5050508;28;19920;-79
2021/01/22 13:03:08;;;;;;;;;;;12.40;82.70;;;;;;5046276;28;20296;-79
2021/01/22 13:05:37;;;;;;;;;;;12.30;80.40;;;;;;5052687;28;19969;-79
2021/01/22 13:08:02;;;;;;;;;;;12.30;80.70;;;;;;5047218;28;19913;-78
2021/01/22 13:10:28;;;;;;;;;;;12.30;81.30;;;;;;5045466;28;19931;-78
2021/01/22 13:12:56;;;;;;;;;;;12.20;81.30;;;;;;5045420;28;19917;-78
2021/01/22 13:15:22;;;;;;;;;;;12.20;81.60;;;;;;5049736;28;20011;-77
2021/01/22 13:17:51;;;;;;;;;;;12.20;81.60;;;;;;5050248;28;20023;-78
2021/01/22 13:20:18;;;;;;;;;;;12.10;86.10;;;;;;5066004;28;20352;-78
2021/01/22 13:22:48;;;;;;;;;;;11.90;89.20;;;;;;5051524;28;20287;-79
2021/01/22 13:25:15;;;;;;;;;;;11.60;91.10;;;;;;5054703;28;19940;-78
2021/01/22 13:27:45;;;;;;;;;;;11.50;92.30;;;;;;5054656;28;19916;-78
2021/01/22 16:39:24;;;;;;;;;;;6.40;99.90;;;;;;5007564;28;20028;-80
2021/01/22 16:41:50;;;;;;;;;;;6.30;99.90;;;;;;5024030;28;19996;-78
2021/01/22 16:44:16;;;;;;;;;;;6.20;99.90;;;;;;5025415;28;19914;-77
2021/01/22 16:46:47;;;;;;;;;;;6.30;99.90;;;;;;5010177;28;19913;-78
2021/01/22 16:49:13;;;;;;;;;;;6.20;99.90;;;;;;5025761;28;19918;-78
2021/01/22 16:51:38;;;;;;;;;;;6.10;99.90;;;;;;5009104;28;19940;-78
2021/01/22 16:54:09;;;;;;;;;;;6.10;99.90;;;;;;5025152;28;19921;-79
2021/01/22 16:56:34;;;;;;;;;;;6.10;99.90;;;;;;5008675;28;19914;-79
2021/01/22 16:59:00;;;;;;;;;;;6.00;99.90;;;;;;5023894;28;19918;-79
2021/01/22 17:01:26;;;;;;;;;;;5.90;99.90;;;;;;5015411;28;19921;-78
2021/01/22 17:03:52;;;;;;;;;;;6.00;99.90;;;;;;5026066;28;19968;-79
2021/01/22 17:06:18;;;;;;;;;;;6.00;99.90;;;;;;5024600;28;19913;-79
2021/01/22 17:08:45;;;;;;;;;;;6.00;99.90;;;;;;5016369;28;19967;-81
2021/01/22 17:11:10;;;;;;;;;;;6.00;99.90;;;;;;5025108;28;20436;-79
2021/01/22 17:13:36;;;;;;;;;;;5.90;99.90;;;;;;5017202;28;20003;-79
2021/01/22 17:16:02;;;;;;;;;;;5.90;99.90;;;;;;5008342;28;19964;-81
2021/01/22 17:18:28;;;;;;;;;;;5.90;99.90;;;;;;5009273;28;20020;-80
2021/01/22 17:20:56;;;;;;;;;;;5.90;99.90;;;;;;5024596;28;19913;-78
2021/01/22 17:45:56;;;;;;;;;;;5.70;99.90;;;;;;5038552;22;19950;-80
2021/01/22 17:48:22;;;;;;;;;;;5.70;99.90;;;;;;5032378;28;19924;-81
2021/01/22 17:50:47;;;;;;;;;;;5.60;99.90;;;;;;5033489;28;20008;-81
2021/01/22 17:53:13;;;;;;;;;;;5.60;99.90;;;;;;5031830;28;19913;-80
2021/01/22 17:55:41;;;;;;;;;;;5.60;99.90;;;;;;5035348;28;19920;-79
2021/01/22 17:58:07;;;;;;;;;;;5.70;99.90;;;;;;5049809;28;20323;-79
2021/01/22 18:00:32;;;;;;;;;;;5.70;99.90;;;;;;5031407;28;19913;-80
2021/01/22 18:02:58;;;;;;;;;;;5.70;99.90;;;;;;5031581;28;19913;-81
2021/01/22 18:05:23;;;;;;;;;;;5.60;99.90;;;;;;5031354;28;19920;-80
2021/01/22 18:07:49;;;;;;;;;;;5.60;99.90;;;;;;5033889;28;20035;-80
2021/01/22 18:10:15;;;;;;;;;;;5.60;99.90;;;;;;5034489;28;19947;-78
2021/01/22 18:12:41;;;;;;;;;;;5.50;99.90;;;;;;5039092;28;19916;-77
2021/01/22 18:15:07;;;;;;;;;;;5.50;99.90;;;;;;5034368;28;19992;-78
2021/01/22 18:17:33;;;;;;;;;;;5.50;99.90;;;;;;5040099;28;19920;-77
2021/01/22 18:20:02;;;;;;;;;;;5.50;99.90;;;;;;5034020;28;20019;-79
2021/01/22 18:22:32;;;;;;;;;;;5.50;99.90;;;;;;5034893;28;19999;-80
2021/01/22 18:24:58;;;;;;;;;;;5.50;99.90;;;;;;5035091;28;19916;-79
2021/01/22 18:27:24;;;;;;;;;;;5.60;99.90;;;;;;5034606;28;20058;-79
2021/01/22 18:29:51;;;;;;;;;;;5.60;99.90;;;;;;5034272;28;20420;-79
2021/01/22 18:32:17;;;;;;;;;;;5.60;99.90;;;;;;5034532;28;19997;-79
2021/01/22 18:34:45;;;;;;;;;;;5.50;99.90;;;;;;5034407;28;19952;-79
2021/01/22 18:37:13;;;;;;;;;;;5.50;99.90;;;;;;5035077;28;19920;-79
2021/01/22 18:39:39;;;;;;;;;;;5.50;99.90;;;;;;5052611;28;19936;-79
2021/01/22 18:42:04;;;;;;;;;;;5.50;99.90;;;;;;5034646;28;20368;-80
2021/01/22 18:44:32;;;;;;;;;;;5.40;99.90;;;;;;5034313;28;19948;-80
2021/01/22 18:46:58;;;;;;;;;;;5.40;99.90;;;;;;5034242;28;20101;-81
2021/01/22 18:49:24;;;;;;;;;;;5.40;99.90;;;;;;5033956;28;20276;-80
2021/01/22 18:51:50;;;;;;;;;;;5.50;99.90;;;;;;5033697;28;19913;-77
2021/01/22 18:54:15;;;;;;;;;;;5.40;99.90;;;;;;5033875;28;19913;-78
2021/01/22 18:56:41;;;;;;;;;;;5.40;99.90;;;;;;5033871;28;19912;-80
2021/01/22 18:59:06;;;;;;;;;;;5.50;99.90;;;;;;5034432;28;19916;-80
2021/01/22 19:01:34;;;;;;;;;;;5.50;99.90;;;;;;5034357;28;19913;-79
2021/01/22 19:04:00;;;;;;;;;;;5.50;99.90;;;;;;5033654;28;19912;-80
2021/01/22 19:06:25;;;;;;;;;;;5.50;99.90;;;;;;5029360;28;19921;-80
2021/01/22 19:08:53;;;;;;;;;;;5.50;99.90;;;;;;5031464;28;19943;-79
2021/01/22 19:11:19;;;;;;;;;;;5.40;99.90;;;;;;5017088;28;19917;-80
2021/01/22 19:13:47;;;;;;;;;;;5.40;99.90;;;;;;5021121;28;19943;-79
2021/01/22 19:16:15;;;;;;;;;;;5.30;99.90;;;;;;5020088;28;19920;-77
2021/01/22 19:18:47;;;;;;;;;;;5.30;99.90;;;;;;5034147;28;19916;-78
2021/01/22 19:21:13;;;;;;;;;;;5.30;99.90;;;;;;5034970;28;19913;-79
2021/01/22 19:23:41;;;;;;;;;;;5.30;99.90;;;;;;5034177;28;19995;-79
2021/01/22 19:26:09;;;;;;;;;;;5.30;99.90;;;;;;5033738;28;19923;-79
2021/01/22 19:28:35;;;;;;;;;;;5.20;99.90;;;;;;5030820;28;19925;-79